Time;durP1;ratioP1;P1;durP2;ratioP2;P2;SDS_P1;SDS_P2;PMS_P1;PMS_P2;Temp;Humidity;BMP_temperature;BMP_pressure;BME280_temperature;BME280_humidity;BME280_pressure;Samples;Min_cycle;Max_cycle;Signal;HPM_P1;HPM_P2
2022/05/31 00:01:50;;;;;;;7.00;3.77;;;;;;;7.66;100.00;101129.91;4910935;29;20052;-76
2022/05/31 00:04:15;;;;;;;14.18;4.32;;;;;;;7.65;100.00;101117.56;4911265;29;20505;-75
2022/05/31 00:06:42;;;;;;;7.10;4.30;;;;;;;7.75;100.00;101129.94;4911216;29;20051;-75
2022/05/31 00:09:07;;;;;;;;;;;;;;;7.80;100.00;101129.53;4911305;29;20482;-75
2022/05/31 00:11:32;;;;;;;;;;;;;;;7.83;100.00;101131.91;4910805;29;19911;-75
2022/05/31 00:13:58;;;;;;;8.70;4.13;;;;;;;7.85;100.00;101121.97;4911130;29;19954;-75
2022/05/31 00:16:23;;;;;;;5.47;3.50;;;;;;;7.90;100.00;101127.72;4956098;28;20032;-75
2022/05/31 00:18:48;;;;;;;6.57;3.57;;;;;;;7.90;100.00;101121.56;4929564;29;20027;-76
2022/05/31 00:21:14;;;;;;;6.03;4.33;;;;;;;7.94;100.00;101123.81;4929512;29;20034;-76
2022/05/31 00:23:42;;;;;;;7.03;4.10;;;;;;;7.97;100.00;101114.72;4944303;29;20048;-77
2022/05/31 00:26:08;;;;;;;9.32;4.38;;;;;;;7.99;100.00;101126.91;4929509;29;20051;-75
2022/05/31 00:28:33;;;;;;;9.65;4.75;;;;;;;8.01;100.00;101129.44;4918388;29;20032;-75
2022/05/31 00:30:59;;;;;;;6.63;4.53;;;;;;;7.96;100.00;101121.88;4908802;29;20103;-75
2022/05/31 00:33:25;;;;;;;13.07;5.53;;;;;;;7.91;100.00;101115.25;4909300;29;20032;-77
2022/05/31 00:35:53;;;;;;;9.02;4.20;;;;;;;7.92;100.00;101120.47;4909215;29;20028;-75
2022/05/31 00:38:20;;;;;;;7.35;4.43;;;;;;;7.92;100.00;101123.13;4922254;29;20043;-77
2022/05/31 00:40:46;;;;;;;6.63;3.45;;;;;;;7.92;100.00;101112.47;4927754;29;20063;-75
2022/05/31 00:43:22;;;;;;;7.43;3.22;;;;;;;7.85;100.00;101107.84;4927809;29;20028;-75
2022/05/31 00:46:02;;;;;;;6.47;3.47;;;;;;;7.81;100.00;101104.63;4929196;29;20094;-75
2022/05/31 00:48:33;;;;;;;7.40;4.15;;;;;;;7.71;100.00;101104.59;4905788;29;20047;-75
2022/05/31 00:51:19;;;;;;;10.02;3.72;;;;;;;7.58;100.00;101096.84;4928390;28;20970;-77
2022/05/31 00:53:51;;;;;;;7.60;4.15;;;;;;;7.52;100.00;101108.03;4937354;29;20051;-77
2022/05/31 00:56:20;;;;;;;6.88;3.70;;;;;;;7.41;100.00;101105.44;4910059;29;20094;-75
2022/05/31 00:59:01;;;;;;;10.18;3.85;;;;;;;7.37;100.00;101101.38;4908835;29;20074;-75
2022/05/31 01:01:29;;;;;;;6.40;3.45;;;;;;;7.29;100.00;101095.91;4909646;29;20036;-75
2022/05/31 01:03:55;;;;;;;7.82;3.58;;;;;;;7.22;100.00;101100.06;4908818;29;20035;-76
2022/05/31 01:06:21;;;;;;;5.32;3.70;;;;;;;7.11;100.00;101085.88;4908960;29;20024;-75
2022/05/31 01:08:47;;;;;;;7.60;3.15;;;;;;;7.08;100.00;101088.78;4908598;29;20482;-75
2022/05/31 01:11:35;;;;;;;6.45;4.30;;;;;;;7.14;100.00;101090.06;4910011;29;20116;-75
2022/05/31 01:14:25;;;;;;;8.30;4.35;;;;;;;6.97;100.00;101080.91;4900194;29;20046;-75
2022/05/31 01:17:25;;;;;;;6.93;3.80;;;;;;;7.01;100.00;101092.13;4909578;29;20099;-75
2022/05/31 01:20:17;;;;;;;9.43;4.00;;;;;;;7.01;100.00;101094.78;4934246;28;20573;-75
2022/05/31 01:22:53;;;;;;;6.72;3.92;;;;;;;6.94;100.00;101094.44;4908370;29;20044;-75
2022/05/31 01:25:22;;;;;;;7.75;3.80;;;;;;;6.85;100.00;101097.88;4908469;29;20020;-77
2022/05/31 01:27:52;;;;;;;8.65;3.55;;;;;;;6.81;100.00;101086.66;4940306;28;20533;-75
2022/05/31 01:30:19;;;;;;;9.43;3.50;;;;;;;6.78;100.00;101094.91;4898132;29;20070;-77
2022/05/31 01:33:22;;;;;;;;;;;;;;;6.74;100.00;101090.81;4922193;29;20031;-77
2022/05/31 01:35:48;;;;;;;10.50;4.15;;;;;;;6.69;100.00;101093.84;4895488;29;20379;-76
2022/05/31 01:38:24;;;;;;;7.47;4.73;;;;;;;6.60;100.00;101093.78;4901666;29;20024;-75
2022/05/31 01:41:10;;;;;;;6.28;3.50;;;;;;;6.54;100.00;101101.28;4919545;29;20048;-77
2022/05/31 01:43:36;;;;;;;5.30;3.20;;;;;;;6.51;100.00;101100.72;4936934;28;20096;-75
2022/05/31 01:46:07;;;;;;;7.10;3.42;;;;;;;6.42;100.00;101097.00;4924327;29;20602;-75
2022/05/31 01:48:35;;;;;;;7.95;3.55;;;;;;;6.36;100.00;101099.31;4924159;29;20036;-76
2022/05/31 01:51:01;;;;;;;9.77;4.38;;;;;;;6.28;100.00;101092.00;4908247;29;20039;-76
2022/05/31 01:53:27;;;;;;;7.35;3.78;;;;;;;6.26;100.00;101097.41;4908301;29;20575;-77
2022/05/31 01:55:53;;;;;;;;;;;;;;;6.26;100.00;101100.06;4924633;29;20036;-76
2022/05/31 01:58:20;;;;;;;;;;;;;;;6.25;100.00;101098.41;4908849;29;20005;-77
2022/05/31 02:00:46;;;;;;;13.52;4.30;;;;;;;6.22;100.00;101101.28;4925627;29;19911;-76
2022/05/31 02:03:16;;;;;;;6.72;3.30;;;;;;;6.18;100.00;101094.56;4910264;29;20074;-77
2022/05/31 02:05:52;;;;;;;12.73;4.93;;;;;;;6.11;100.00;101098.66;4911064;29;20040;-75
2022/05/31 02:08:22;;;;;;;6.35;3.58;;;;;;;6.07;100.00;101098.09;4911788;29;20103;-79
2022/05/31 02:10:48;;;;;;;6.60;3.92;;;;;;;6.13;100.00;101099.38;4911801;29;20044;-77
2022/05/31 02:13:15;;;;;;;5.43;3.40;;;;;;;6.07;100.00;101097.25;4911631;29;20080;-77
2022/05/31 02:15:47;;;;;;;8.48;4.57;;;;;;;6.08;100.00;101106.88;4926620;29;20032;-77
2022/05/31 02:18:13;;;;;;;5.30;3.37;;;;;;;6.03;100.00;101103.75;4913298;29;20106;-75
2022/05/31 02:21:04;;;;;;;9.63;5.32;;;;;;;6.03;100.00;101098.47;4911453;29;20074;-77
2022/05/31 02:23:29;;;;;;;6.03;3.63;;;;;;;6.00;100.00;101107.50;4911925;29;20068;-76
2022/05/31 02:25:55;;;;;;;8.47;4.10;;;;;;;6.00;100.00;101109.31;4911612;29;20727;-75
2022/05/31 02:28:22;;;;;;;10.65;3.67;;;;;;;6.04;100.00;101108.06;4941036;29;20031;-77
2022/05/31 02:30:47;;;;;;;9.75;5.03;;;;;;;5.93;100.00;101107.13;4952902;28;20032;-77
2022/05/31 02:33:13;;;;;;;11.03;5.07;;;;;;;5.95;100.00;101106.16;4912360;29;20947;-75
2022/05/31 02:35:38;;;;;;;5.38;3.03;;;;;;;5.89;100.00;101105.66;4913105;29;20052;-75
2022/05/31 02:38:05;;;;;;;8.43;4.90;;;;;;;6.00;100.00;101109.31;4928795;29;20115;-75
2022/05/31 02:40:31;;;;;;;8.20;3.92;;;;;;;5.92;100.00;101104.59;4922064;29;20055;-77
2022/05/31 02:42:57;;;;;;;8.63;4.38;;;;;;;6.00;100.00;101110.16;4916047;29;20035;-77
2022/05/31 02:45:22;;;;;;;7.17;4.30;;;;;;;5.99;100.00;101102.31;4929005;28;20373;-77
2022/05/31 02:47:48;;;;;;;9.53;4.53;;;;;;;6.08;100.00;101104.22;4920470;29;20035;-76
2022/05/31 02:50:14;;;;;;;9.90;4.80;;;;;;;6.03;100.00;101096.63;4912882;29;20811;-77
2022/05/31 02:52:39;;;;;;;9.57;4.45;;;;;;;6.07;100.00;101107.84;4928368;29;20298;-77
2022/05/31 02:55:05;;;;;;;9.60;5.07;;;;;;;6.12;100.00;101111.81;4913655;29;20024;-78
2022/05/31 02:57:31;;;;;;;12.50;4.80;;;;;;;6.12;100.00;101114.44;4914990;29;20044;-77
2022/05/31 03:00:22;;;;;;;7.03;4.68;;;;;;;6.02;100.00;101110.03;4914543;29;20119;-76
2022/05/31 03:03:23;;;;;;;8.35;4.10;;;;;;;6.02;100.00;101116.19;4911278;29;20051;-76
2022/05/31 03:06:07;;;;;;;9.25;4.45;;;;;;;5.99;100.00;101110.28;4918331;29;20512;-77
2022/05/31 03:08:38;;;;;;;10.10;4.75;;;;;;;5.95;100.00;101119.41;4932275;29;20054;-77
2022/05/31 03:11:15;;;;;;;8.77;4.13;;;;;;;5.93;100.00;101112.41;4948003;28;20119;-77
2022/05/31 03:13:42;;;;;;;7.38;4.15;;;;;;;5.90;100.00;101114.50;4931337;29;20118;-75
2022/05/31 03:16:07;;;;;;;7.47;4.15;;;;;;;5.93;100.00;101116.88;4924730;29;20031;-77
2022/05/31 03:18:40;;;;;;;7.28;4.22;;;;;;;5.94;100.00;101108.00;4912750;29;20398;-77
2022/05/31 03:21:18;;;;;;;9.60;4.65;;;;;;;5.93;100.00;101117.72;4912383;29;20084;-77
2022/05/31 03:23:52;;;;;;;9.90;4.68;;;;;;;5.93;100.00;101123.03;4928187;29;20040;-76
2022/05/31 03:26:20;;;;;;;8.80;4.63;;;;;;;5.99;100.00;101120.88;4928519;29;20024;-77
2022/05/31 03:28:46;;;;;;;13.20;5.18;;;;;;;6.00;100.00;101117.28;4898524;29;20445;-77
2022/05/31 03:31:11;;;;;;;7.85;4.18;;;;;;;6.04;100.00;101113.38;4912397;29;20060;-77
2022/05/31 03:33:37;;;;;;;7.73;3.83;;;;;;;6.10;100.00;101118.19;4912414;29;20129;-76
2022/05/31 03:36:02;;;;;;;7.20;4.57;;;;;;;6.10;100.00;101112.91;4912189;29;20409;-78
2022/05/31 03:38:38;;;;;;;11.68;4.63;;;;;;;6.14;100.00;101114.34;4940095;28;20024;-76
2022/05/31 03:41:04;;;;;;;8.48;4.07;;;;;;;6.17;100.00;101114.09;4943711;28;20047;-75
2022/05/31 03:43:50;;;;;;;11.43;4.45;;;;;;;6.22;100.00;101122.50;4915699;28;20501;-77
2022/05/31 03:46:22;;;;;;;9.35;4.43;;;;;;;6.29;100.00;101118.38;4912705;29;20063;-76
2022/05/31 03:48:58;;;;;;;6.57;2.90;;;;;;;6.31;100.00;101111.13;4913867;29;20079;-77
2022/05/31 03:51:24;;;;;;;7.95;3.35;;;;;;;6.35;100.00;101101.13;4911732;29;20287;-75
2022/05/31 03:53:52;;;;;;;10.38;4.65;;;;;;;6.45;100.00;101111.81;4913250;29;20513;-77
2022/05/31 03:56:25;;;;;;;6.65;3.83;;;;;;;6.60;100.00;101115.00;4927131;29;20036;-77
2022/05/31 03:58:50;;;;;;;8.25;4.72;;;;;;;6.70;100.00;101113.28;4911654;29;20035;-77
2022/05/31 04:01:18;;;;;;;8.88;4.47;;;;;;;6.75;100.00;101113.75;4927299;29;20031;-77
2022/05/31 04:03:45;;;;;;;7.22;4.13;;;;;;;6.88;100.00;101103.78;4912355;29;20067;-77
2022/05/31 04:06:10;;;;;;;10.17;5.47;;;;;;;6.95;100.00;101104.06;4912467;29;20054;-77
2022/05/31 04:08:36;;;;;;;8.70;4.80;;;;;;;7.05;100.00;101107.66;4943799;28;20040;-76
2022/05/31 04:11:02;;;;;;;8.60;4.00;;;;;;;7.07;100.00;101105.72;4911642;29;20557;-77
2022/05/31 04:13:29;;;;;;;12.77;4.80;;;;;;;7.17;100.00;101108.41;4913365;29;20205;-75
2022/05/31 04:16:21;;;;;;;11.27;5.20;;;;;;;7.26;100.00;101120.91;4912490;29;20031;-76
2022/05/31 04:18:55;;;;;;;9.68;4.57;;;;;;;7.35;100.00;101108.63;4911891;29;20036;-76
2022/05/31 04:21:20;;;;;;;13.43;4.97;;;;;;;7.41;100.00;101113.41;4911517;29;20032;-78
2022/05/31 04:24:08;;;;;;;8.98;4.25;;;;;;;7.46;100.00;101113.84;4911790;29;20104;-76
2022/05/31 04:26:47;;;;;;;8.18;3.95;;;;;;;7.53;100.00;101106.19;4941945;28;20518;-77
2022/05/31 04:29:31;;;;;;;7.03;4.47;;;;;;;7.56;100.00;101106.78;4938626;28;20051;-76
2022/05/31 04:32:28;;;;;;;9.43;4.45;;;;;;;7.71;100.00;101106.41;4904477;29;20846;-75
2022/05/31 04:35:11;;;;;;;10.18;3.58;;;;;;;7.86;100.00;101120.16;4898362;29;20032;-77
2022/05/31 04:37:37;;;;;;;6.67;4.07;;;;;;;8.03;100.00;101111.53;4927186;29;20099;-76
2022/05/31 04:40:21;;;;;;;7.55;4.18;;;;;;;8.13;100.00;101107.06;4924696;29;20291;-76
2022/05/31 04:42:59;;;;;;;7.53;4.13;;;;;;;8.21;100.00;101099.22;4924731;29;20067;-75
2022/05/31 04:45:43;;;;;;;7.85;3.35;;;;;;;8.34;100.00;101093.66;4910400;29;20150;-76
2022/05/31 04:48:24;;;;;;;7.90;3.57;;;;;;;8.41;100.00;101100.13;4911283;29;20036;-77
2022/05/31 04:50:50;;;;;;;8.68;3.63;;;;;;;8.39;100.00;101090.56;4911308;29;20498;-76
2022/05/31 04:53:16;;;;;;;6.22;3.40;;;;;;;8.45;100.00;101084.69;4910915;29;20020;-78
2022/05/31 04:56:08;;;;;;;6.93;2.22;;;;;;;8.71;100.00;101081.47;4911656;29;20044;-77
2022/05/31 04:58:34;;;;;;;6.22;2.95;;;;;;;8.79;100.00;101071.78;4926091;29;20059;-76
2022/05/31 05:01:06;;;;;;;6.63;3.15;;;;;;;9.02;100.00;101066.16;4896683;29;20111;-76
2022/05/31 05:03:35;;;;;;;5.85;2.88;;;;;;;9.19;100.00;101059.22;4927140;29;20446;-76
2022/05/31 05:06:03;;;;;;;8.70;3.92;;;;;;;9.24;100.00;101057.78;4910613;29;20024;-77
2022/05/31 05:08:30;;;;;;;6.15;3.10;;;;;;;9.46;100.00;101053.09;4899439;29;20040;-76
2022/05/31 05:10:56;;;;;;;4.80;2.58;;;;;;;9.49;100.00;101047.44;4942822;28;20035;-76
2022/05/31 05:13:29;;;;;;;4.40;3.03;;;;;;;9.64;100.00;101039.78;4912703;29;20072;-76
2022/05/31 05:16:26;;;;;;;4.28;2.80;;;;;;;9.97;100.00;101032.97;4961502;28;20120;-77
2022/05/31 05:18:54;;;;;;;4.03;2.88;;;;;;;10.39;100.00;101045.72;4926947;29;20028;-76
2022/05/31 05:21:19;;;;;;;4.05;2.72;;;;;;;10.78;100.00;101040.03;4941139;29;20027;-77
2022/05/31 05:23:46;;;;;;;5.05;2.53;;;;;;;10.94;100.00;101004.56;4913934;29;20098;-77
2022/05/31 05:26:16;;;;;;;8.52;2.83;;;;;;;11.37;100.00;100992.88;4913239;29;20069;-78
2022/05/31 05:31:44;;;;;;;6.35;2.78;;;;;;;12.91;100.00;100890.50;4909694;29;20178;-76
2022/05/31 05:34:27;;;;;;;3.05;2.00;;;;;;;14.03;100.00;100807.75;4934253;28;20066;-77
2022/05/31 05:36:58;;;;;;;4.80;2.78;;;;;;;14.58;100.00;100657.88;4915533;29;20032;-77
2022/05/31 05:39:24;;;;;;;2.78;2.28;;;;;;;15.55;100.00;100618.75;4909509;29;20036;-76
2022/05/31 05:42:08;;;;;;;9.55;2.78;;;;;;;15.93;100.00;100553.72;4938830;28;20039;-77
2022/05/31 05:44:56;;;;;;;7.85;2.35;;;;;;;16.14;100.00;100531.19;4912082;29;20104;-77
2022/05/31 05:47:21;;;;;;;4.53;2.80;;;;;;;16.99;95.50;100434.38;4914742;29;20503;-75
2022/05/31 05:49:46;;;;;;;3.70;2.20;;;;;;;16.86;91.27;100362.47;4914204;29;20110;-78
2022/05/31 05:52:31;;;;;;;3.90;2.10;;;;;;;17.42;84.95;100366.31;4912325;29;20051;-77
2022/05/31 05:55:15;;;;;;;4.25;2.13;;;;;;;17.79;79.83;100329.50;4960036;28;20572;-76
2022/05/31 05:58:00;;;;;;;3.17;1.80;;;;;;;17.28;80.94;100315.16;4928924;29;20046;-78
2022/05/31 06:00:50;;;;;;;2.58;1.98;;;;;;;18.03;78.26;100378.41;4941889;28;20050;-76
2022/05/31 06:03:19;;;;;;;4.63;2.30;;;;;;;18.40;75.43;100356.84;4929859;29;20124;-78
2022/05/31 06:05:59;;;;;;;5.45;2.95;;;;;;;17.29;76.54;100235.84;4914445;29;20088;-75
2022/05/31 06:08:33;;;;;;;6.53;1.95;;;;;;;17.64;76.36;100316.34;4918956;29;20024;-77
2022/05/31 06:11:07;;;;;;;3.85;2.45;;;;;;;17.41;74.10;100248.63;4921847;29;20106;-76
2022/05/31 06:13:38;;;;;;;4.47;2.75;;;;;;;16.37;83.55;100312.63;4915255;29;20056;-77
2022/05/31 06:16:05;;;;;;;2.60;1.70;;;;;;;17.85;78.09;100457.47;4930672;29;20581;-75
2022/05/31 06:18:45;;;;;;;5.07;2.22;;;;;;;16.93;80.66;100410.94;4914461;29;20035;-78
2022/05/31 06:21:11;;;;;;;4.97;2.67;;;;;;;17.50;78.74;100428.16;4914125;29;20031;-77
2022/05/31 06:23:42;;;;;;;3.25;2.38;;;;;;;16.78;76.32;100255.63;4914012;29;20036;-77
2022/05/31 06:26:12;;;;;;;6.65;2.13;;;;;;;17.57;78.71;100499.13;4914335;29;20035;-77
2022/05/31 06:29:09;;;;;;;4.00;2.30;;;;;;;17.59;76.90;100402.56;4914974;29;20524;-78
2022/05/31 06:31:35;;;;;;;6.43;2.00;;;;;;;18.32;77.32;100530.91;4929987;29;20040;-78
2022/05/31 06:34:08;;;;;;;4.05;2.35;;;;;;;18.11;70.48;100306.00;4929603;29;20119;-78
2022/05/31 06:37:05;;;;;;;4.03;2.05;;;;;;;16.96;80.59;100402.44;4941074;28;20139;-78
2022/05/31 06:39:30;;;;;;;4.32;1.92;;;;;;;17.40;77.50;100415.13;4929836;29;20051;-78
2022/05/31 06:41:56;;;;;;;4.10;1.77;;;;;;;18.03;71.36;100392.72;4945489;28;20474;-78
2022/05/31 06:44:44;;;;;;;5.00;1.63;;;;;;;18.56;65.87;100294.91;4909780;29;20058;-76
2022/05/31 06:47:28;;;;;;;7.97;1.40;;;;;;;16.88;73.61;100255.22;4913396;29;20103;-79
2022/05/31 06:50:19;;;;;;;2.75;1.33;;;;;;;18.25;68.34;100382.34;4913046;29;20075;-76
2022/05/31 06:56:48;;;;;;;3.47;1.88;;;;;;;18.87;62.64;100303.94;4914083;29;20127;-76
2022/05/31 06:59:24;;;;;;;4.45;1.77;;;;;;;17.41;66.79;100229.75;4912845;29;20040;-78
2022/05/31 07:01:50;;;;;;;4.38;1.85;;;;;;;17.92;67.46;100347.53;4912553;29;20040;-77
2022/05/31 07:04:17;;;;;;;3.05;1.23;;;;;;;18.30;64.92;100338.44;4929736;29;20024;-77
2022/05/31 07:06:43;;;;;;;2.92;1.33;;;;;;;18.07;64.91;100280.47;4923752;29;20043;-78
2022/05/31 07:09:34;;;;;;;4.00;1.42;;;;;;;17.75;66.99;100279.72;4929807;28;20035;-79
2022/05/31 07:12:13;;;;;;;3.70;1.92;;;;;;;15.69;73.69;100178.31;4913054;29;20043;-78
2022/05/31 07:14:57;;;;;;;2.30;1.20;;;;;;;15.05;84.59;100409.09;4914605;29;20131;-78
2022/05/31 07:17:41;;;;;;;3.20;1.20;;;;;;;16.11;80.96;100539.66;4914415;29;20083;-78
2022/05/31 07:20:08;;;;;;;2.50;1.43;;;;;;;16.91;72.91;100453.50;4928999;29;20450;-78
2022/05/31 07:22:35;;;;;;;3.25;1.38;;;;;;;17.54;72.10;100526.53;4912787;29;20122;-76
2022/05/31 07:25:22;;;;;;;2.10;1.00;;;;;;;17.18;70.25;100446.94;4926854;29;20031;-77
2022/05/31 07:27:54;;;;;;;1.60;0.75;;;;;;;18.01;69.01;100540.69;4927727;29;20036;-75
2022/05/31 07:30:19;;;;;;;2.70;0.80;;;;;;;17.57;67.33;100410.03;4929420;29;20099;-78
2022/05/31 07:32:45;;;;;;;2.73;1.00;;;;;;;18.06;62.10;100348.25;4912631;29;20111;-78
2022/05/31 07:35:11;;;;;;;1.23;0.63;;;;;;;17.01;65.02;100278.59;4928734;29;20127;-77
2022/05/31 07:37:36;;;;;;;2.28;1.20;;;;;;;15.98;62.99;100048.63;4912996;29;20039;-77
2022/05/31 07:40:03;;;;;;;3.33;1.00;;;;;;;15.94;71.74;100367.75;4944398;28;20044;-76
2022/05/31 07:42:29;;;;;;;1.27;0.88;;;;;;;16.87;74.33;100559.03;4912179;29;20035;-76
2022/05/31 07:44:55;;;;;;;1.00;0.90;;;;;;;15.71;67.42;100158.25;4920128;29;20130;-77
2022/05/31 07:47:22;;;;;;;2.15;0.90;;;;;;;16.01;68.21;100293.22;4947857;29;20049;-78
2022/05/31 07:49:48;;;;;;;1.83;0.77;;;;;;;15.86;70.11;100332.97;4931265;29;20062;-77
2022/05/31 07:52:33;;;;;;;1.88;0.80;;;;;;;14.81;72.44;100251.88;4929874;29;20054;-77
2022/05/31 07:55:16;;;;;;;1.08;0.70;;;;;;;14.79;70.77;100235.13;4958862;28;20671;-78
2022/05/31 08:01:07;;;;;;;1.45;0.52;;;;;;;16.52;66.83;100445.22;4910648;29;20183;-77
2022/05/31 08:03:34;;;;;;;1.38;0.68;;;;;;;16.01;64.97;100282.44;4912737;29;20040;-78
2022/05/31 08:06:06;;;;;;;2.03;1.50;;;;;;;17.14;67.96;100563.56;4911955;29;20486;-77
2022/05/31 08:08:31;;;;;;;2.72;0.75;;;;;;;17.21;62.42;100406.09;4911605;29;20043;-77
2022/05/31 08:10:57;;;;;;;2.45;0.60;;;;;;;17.79;60.88;100467.22;4896298;29;20030;-78
2022/05/31 08:13:23;;;;;;;1.17;0.60;;;;;;;17.26;58.47;100271.38;4943853;28;20672;-78
2022/05/31 08:15:48;;;;;;;3.40;1.08;;;;;;;16.91;59.60;100213.53;4915292;29;20123;-77
2022/05/31 08:18:14;;;;;;;1.60;0.50;;;;;;;16.18;60.11;100133.88;4932388;29;20686;-76
2022/05/31 08:20:39;;;;;;;0.60;0.50;;;;;;;15.70;63.74;100239.16;4917702;29;20673;-78
2022/05/31 08:23:06;;;;;;;2.92;0.77;;;;;;;16.40;65.96;100411.88;4927473;29;20478;-79
2022/05/31 08:25:34;;;;;;;1.70;0.50;;;;;;;16.14;59.02;100140.72;4912368;29;20035;-78
2022/05/31 08:28:01;;;;;;;2.10;0.73;;;;;;;15.89;60.42;100165.66;4928305;29;20398;-76
2022/05/31 08:30:27;;;;;;;2.20;0.52;;;;;;;16.83;61.33;100352.94;4913093;29;20055;-77
2022/05/31 08:32:53;;;;;;;1.05;0.40;;;;;;;17.43;56.66;100300.53;4912823;29;20656;-76
2022/05/31 08:35:18;;;;;;;6.00;0.60;;;;;;;16.97;58.62;100270.09;4911827;29;20131;-77
2022/05/31 08:37:44;;;;;;;3.92;0.75;;;;;;;16.23;56.70;100061.34;4910342;29;20432;-80
2022/05/31 08:40:11;;;;;;;0.50;0.40;;;;;;;16.26;60.03;100235.97;4910273;29;20035;-77
2022/05/31 08:43:05;;;;;;;1.05;0.60;;;;;;;17.57;58.11;100393.03;4941517;28;20050;-79
2022/05/31 08:45:52;;;;;;;1.48;0.40;;;;;;;17.11;53.26;100106.31;4908082;29;20119;-76
2022/05/31 08:48:31;;;;;;;0.75;0.40;;;;;;;18.00;51.39;100195.97;4920293;29;20029;-76
2022/05/31 08:56:59;;;;;;;0.65;0.30;;;;;;;18.18;48.20;100026.84;4928543;29;20046;-77
2022/05/31 08:59:58;;;;;;;1.00;0.40;;;;;;;17.90;51.66;100217.28;4891340;29;20034;-77
2022/05/31 09:02:36;;;;;;;2.45;0.40;;;;;;;18.60;51.11;100273.66;4909269;29;20493;-79
2022/05/31 09:05:13;;;;;;;2.88;0.80;;;;;;;18.58;50.17;100207.38;4908980;29;20529;-77
2022/05/31 09:07:48;;;;;;;0.63;0.40;;;;;;;18.57;47.54;100036.25;4924836;29;20039;-77
2022/05/31 09:10:28;;;;;;;1.17;0.30;;;;;;;18.66;47.60;100109.69;4940648;28;20068;-77
2022/05/31 09:13:09;;;;;;;0.55;0.38;;;;;;;18.24;49.25;100069.16;4940000;28;20524;-77
2022/05/31 09:15:44;;;;;;;0.77;0.60;;;;;;;17.21;49.86;99934.03;4924918;29;20079;-78
2022/05/31 09:18:23;;;;;;;1.60;0.50;;;;;;;17.20;50.91;100015.97;4924552;29;20505;-78
2022/05/31 09:20:56;;;;;;;2.00;0.47;;;;;;;18.45;50.72;100260.53;4893216;29;20040;-78
2022/05/31 09:23:40;;;;;;;2.13;0.38;;;;;;;19.13;51.16;100367.69;4909165;29;20032;-77
2022/05/31 09:26:08;;;;;;;1.13;0.60;;;;;;;19.08;47.35;100078.06;4910126;29;20063;-78
2022/05/31 09:28:47;;;;;;;0.73;0.40;;;;;;;18.91;48.74;100178.00;4893267;29;20040;-79
2022/05/31 09:31:34;;;;;;;1.10;0.65;;;;;;;18.68;45.85;99912.94;4892629;29;20143;-78
2022/05/31 09:34:29;;;;;;;2.05;0.57;;;;;;;18.74;46.59;100053.41;4940505;28;20039;-77
2022/05/31 09:37:21;;;;;;;3.07;0.40;;;;;;;18.41;47.36;99962.06;4924336;29;20044;-78
2022/05/31 09:40:25;;;;;;;1.30;0.98;;;;;;;18.71;47.98;100045.78;4908579;29;20043;-77
2022/05/31 09:43:02;;;;;;;2.67;0.60;;;;;;;17.99;48.49;99985.56;4908603;29;20072;-77
2022/05/31 09:45:31;;;;;;;2.05;0.40;;;;;;;18.61;50.09;100218.53;4915651;29;20048;-77
2022/05/31 09:47:59;;;;;;;2.08;0.63;;;;;;;18.52;48.14;100087.47;4898416;29;20043;-77
2022/05/31 09:50:28;;;;;;;0.80;0.40;;;;;;;19.14;49.18;100268.41;4923053;29;20032;-78
2022/05/31 09:52:56;;;;;;;2.45;0.70;;;;;;;19.12;45.83;100027.00;4927291;29;20211;-78
2022/05/31 09:58:40;;;;;;;2.08;0.40;;;;;;;19.19;48.13;100195.47;4907155;29;20047;-78
2022/05/31 10:01:30;;;;;;;0.77;0.40;;;;;;;19.89;46.07;100183.03;4934094;28;20094;-77
2022/05/31 10:04:22;;;;;;;0.95;0.60;;;;;;;20.57;46.09;100290.75;4889101;29;20035;-77
2022/05/31 10:06:55;;;;;;;1.20;0.55;;;;;;;20.85;44.56;100265.56;4908367;29;20040;-78
2022/05/31 10:09:26;;;;;;;0.93;0.50;;;;;;;20.41;43.06;99980.53;4908215;29;20107;-77
2022/05/31 10:12:04;;;;;;;1.30;0.40;;;;;;;20.55;43.79;100103.03;4939818;28;20043;-79
2022/05/31 10:14:36;;;;;;;1.23;0.63;;;;;;;20.42;43.78;100032.88;4924059;29;20032;-79
2022/05/31 10:17:34;;;;;;;1.02;0.50;;;;;;;19.69;44.25;99920.72;4908229;29;20032;-77
2022/05/31 10:20:14;;;;;;;4.20;0.52;;;;;;;20.15;44.50;100079.53;4909738;29;20043;-78
2022/05/31 10:22:53;;;;;;;0.50;0.50;;;;;;;20.60;44.71;100200.81;4923354;29;20490;-78
2022/05/31 10:25:49;;;;;;;1.23;0.50;;;;;;;19.91;44.25;100013.78;4912870;29;20507;-79
2022/05/31 10:28:53;;;;;;;0.65;0.40;;;;;;;20.23;45.88;100193.00;4915969;29;20070;-78
2022/05/31 10:31:40;;;;;;;;;;;;;;;20.80;44.37;100215.81;4926219;29;20063;-78
2022/05/31 10:34:26;;;;;;;1.58;0.55;;;;;;;20.34;42.20;99897.72;4908639;29;19915;-77
2022/05/31 10:36:57;;;;;;;1.00;0.50;;;;;;;19.93;43.83;99945.84;4909697;29;20032;-77
2022/05/31 10:39:26;;;;;;;3.05;0.47;;;;;;;20.00;44.28;100025.06;4940114;28;20032;-79
2022/05/31 10:41:55;;;;;;;1.05;0.50;;;;;;;20.04;46.09;100175.22;4895400;29;20481;-77
2022/05/31 10:44:29;;;;;;;0.52;0.35;;;;;;;20.31;44.48;100071.69;4943470;28;20040;-77
2022/05/31 10:47:16;;;;;;;2.47;0.70;;;;;;;19.67;46.73;100107.00;4913380;29;20067;-77
2022/05/31 10:49:43;;;;;;;0.93;0.50;;;;;;;19.70;48.01;100163.41;4926768;29;20032;-77
2022/05/31 10:52:38;;;;;;;1.33;0.68;;;;;;;19.52;46.50;100064.97;4926859;29;20091;-78
2022/05/31 10:55:22;;;;;;;0.40;0.40;;;;;;;20.49;45.07;100160.97;4943782;28;20122;-77
2022/05/31 10:57:48;;;;;;;1.02;0.47;;;;;;;20.06;43.47;99894.03;4926925;29;20156;-77
2022/05/31 11:00:22;;;;;;;0.98;0.50;;;;;;;19.84;42.81;99820.00;4895383;29;20040;-77
2022/05/31 11:02:57;;;;;;;1.00;0.60;;;;;;;19.55;45.77;100036.59;4911827;29;20063;-77
2022/05/31 11:05:37;;;;;;;2.40;0.63;;;;;;;19.67;43.46;99853.28;4917074;29;20036;-77
2022/05/31 11:11:30;;;;;;;2.53;0.50;;;;;;;19.10;46.81;100053.47;4910625;29;20058;-78
2022/05/31 11:14:07;;;;;;;1.92;0.63;;;;;;;19.79;45.42;100086.97;4916997;29;20055;-77
2022/05/31 11:17:00;;;;;;;0.40;0.40;;;;;;;20.82;45.17;100267.94;4911110;29;20051;-78
2022/05/31 11:19:49;;;;;;;2.00;0.55;;;;;;;21.26;44.08;100246.50;4908891;29;20032;-77
2022/05/31 11:22:21;;;;;;;0.68;0.47;;;;;;;21.05;42.23;100007.31;4942294;28;20455;-77
2022/05/31 11:25:10;;;;;;;0.65;0.40;;;;;;;20.75;43.14;100039.41;4936096;29;20040;-78
2022/05/31 11:27:57;;;;;;;0.90;0.45;;;;;;;20.54;44.20;100044.47;4925839;29;20099;-77
2022/05/31 11:30:57;;;;;;;1.38;0.52;;;;;;;19.92;42.99;99836.63;4910565;29;20072;-78
2022/05/31 11:33:54;;;;;;;0.38;0.38;;;;;;;19.50;43.88;99818.06;4903934;29;20052;-78
2022/05/31 11:36:31;;;;;;;1.15;0.43;;;;;;;19.18;44.67;99847.50;4926347;29;20040;-78
2022/05/31 11:39:21;;;;;;;2.78;0.57;;;;;;;19.81;43.19;99830.25;4930405;29;20027;-77
2022/05/31 11:42:33;;;;;;;1.85;0.60;;;;;;;20.96;44.95;100271.19;4960921;28;20024;-78
2022/05/31 11:45:08;;;;;;;1.08;0.30;;;;;;;20.20;43.47;99960.38;4929209;29;20042;-77
2022/05/31 11:47:50;;;;;;;1.05;0.52;;;;;;;19.66;43.58;99883.28;4919489;29;20051;-77
2022/05/31 11:50:34;;;;;;;3.40;0.68;;;;;;;20.84;42.04;99980.97;4908988;29;20186;-77
2022/05/31 11:53:12;;;;;;;1.00;0.40;;;;;;;19.78;40.88;99622.22;4938588;28;20051;-78
2022/05/31 11:55:46;;;;;;;0.57;0.40;;;;;;;19.39;43.47;99806.22;4910082;29;20108;-78
2022/05/31 11:58:22;;;;;;;1.00;0.50;;;;;;;19.04;44.64;99803.69;4911046;29;20039;-78
2022/05/31 12:01:11;;;;;;;0.40;0.30;;;;;;;18.94;44.33;99793.47;4910350;29;20078;-79
2022/05/31 12:03:58;;;;;;;1.23;0.50;;;;;;;18.83;46.21;99915.22;4909519;29;20036;-77
2022/05/31 12:06:34;;;;;;;1.02;0.50;;;;;;;18.89;47.55;100003.50;4909441;29;20661;-77
2022/05/31 12:09:02;;;;;;;0.57;0.43;;;;;;;19.18;48.37;100112.66;4904613;29;20046;-77
2022/05/31 12:11:52;;;;;;;1.05;0.52;;;;;;;18.52;48.82;99966.66;4911017;29;20047;-78
2022/05/31 12:14:20;;;;;;;1.73;0.47;;;;;;;18.84;45.62;99858.16;4925689;29;20506;-77
2022/05/31 12:16:46;;;;;;;0.80;0.45;;;;;;;18.75;47.01;99940.66;4909959;29;20486;-76
2022/05/31 12:19:17;;;;;;;1.33;0.50;;;;;;;18.07;46.86;99801.56;4909644;29;20032;-76
2022/05/31 12:22:02;;;;;;;0.88;0.47;;;;;;;17.72;48.49;99808.56;4909461;29;20067;-78
2022/05/31 12:24:35;;;;;;;1.50;0.40;;;;;;;17.83;48.29;99836.66;4909726;29;20040;-79